createdAt,value
2018-06-28T05:01:53.131Z,95552.76
2018-06-28T05:06:56.469Z,95553.70
2018-06-28T05:11:59.803Z,95556.23
2018-06-28T05:17:04.173Z,95550.36
2018-06-28T05:22:07.506Z,95551.42
2018-06-28T05:27:10.838Z,95542.69
2018-06-28T05:32:14.168Z,95538.48
2018-06-28T05:37:17.507Z,95535.55
2018-06-28T05:42:21.612Z,95532.77
2018-06-28T05:47:24.946Z,95536.73
2018-06-28T05:52:29.035Z,95537.84
2018-06-28T05:57:32.357Z,95544.44
2018-06-28T06:02:35.686Z,95541.78
2018-06-28T06:07:39.051Z,95549.77
2018-06-28T06:12:42.417Z,95547.63
2018-06-28T06:17:45.757Z,95546.97
2018-06-28T06:22:49.087Z,95540.78
2018-06-28T06:27:52.427Z,95538.23
2018-06-28T06:32:55.878Z,95540.41
2018-06-28T06:37:59.963Z,95530.38
2018-06-28T06:43:03.391Z,95539.14
2018-06-28T06:48:06.725Z,95530.07
2018-06-28T06:53:10.057Z,95530.80
2018-06-28T06:58:14.147Z,95530.91
2018-06-28T07:03:17.479Z,95527.84
2018-06-28T07:08:20.812Z,95523.50
2018-06-28T07:13:24.913Z,95521.34
2018-06-28T07:18:28.243Z,95511.98
2018-06-28T07:23:32.342Z,95517.55
2018-06-28T07:28:35.698Z,95520.00
2018-06-28T07:33:39.033Z,95517.56
2018-06-28T07:38:42.363Z,95518.94
2018-06-28T07:43:45.690Z,95518.83
2018-06-28T07:48:49.019Z,95516.07
2018-06-28T07:53:52.357Z,95516.48
2018-06-28T07:58:56.450Z,95526.20
2018-06-28T08:03:59.779Z,95526.01
2018-06-28T08:09:04.801Z,95534.83
2018-06-28T08:14:12.081Z,95522.48
2018-06-28T08:19:15.406Z,95531.84
2018-06-28T08:24:18.739Z,95532.39
2018-06-28T08:29:22.058Z,95541.70
2018-06-28T08:34:25.403Z,95548.96
2018-06-28T08:39:29.496Z,95539.28
2018-06-28T08:44:32.826Z,95548.70
2018-06-28T08:49:36.162Z,95549.89
2018-06-28T08:54:40.259Z,95546.02
2018-06-28T08:59:43.599Z,95547.83
2018-06-28T09:04:46.928Z,95543.65
2018-06-28T09:09:51.023Z,95538.89
2018-06-28T09:14:54.353Z,95536.00
2018-06-28T09:19:57.688Z,95551.06
2018-06-28T09:25:01.787Z,95556.27
2018-06-28T09:30:05.124Z,95537.89
2018-06-28T09:35:09.226Z,95533.16
2018-06-28T09:40:12.566Z,95524.30
2018-06-28T09:45:16.707Z,95513.02
2018-06-28T09:50:20.764Z,95505.81
2018-06-28T09:55:24.095Z,95502.15
2018-06-28T10:00:27.488Z,95509.39
2018-06-28T10:05:30.791Z,95498.06
2018-06-28T10:10:34.124Z,95495.99
2018-06-28T10:15:37.455Z,95503.31
2018-06-28T10:20:40.800Z,95495.86
2018-06-28T10:25:44.903Z,95491.28
2018-06-28T10:30:48.257Z,95494.66
2018-06-28T10:35:51.587Z,95499.72
2018-06-28T10:40:54.945Z,95495.83
2018-06-28T10:45:58.285Z,95492.25
2018-06-28T10:51:02.382Z,95497.98
2018-06-28T10:56:05.723Z,95484.31
2018-06-28T11:01:09.818Z,95491.98
2018-06-28T11:06:13.146Z,95485.12
2018-06-28T11:11:16.495Z,95481.91
2018-06-28T11:16:19.830Z,95476.09
2018-06-28T11:21:23.160Z,95469.19
2018-06-28T11:26:26.495Z,95470.97
2018-06-28T11:31:29.840Z,95464.72
2018-06-28T11:36:33.944Z,95463.90
2018-06-28T11:41:37.289Z,95453.80
2018-06-28T11:46:40.620Z,95450.75
2018-06-28T11:51:43.957Z,95445.28
2018-06-28T11:56:47.298Z,95440.30
2018-06-28T12:01:50.641Z,95434.63
2018-06-28T12:06:53.979Z,95435.53
2018-06-28T12:11:57.316Z,95425.70
2018-06-28T12:17:00.646Z,95427.91
2018-06-28T12:22:03.983Z,95414.66
2018-06-28T12:27:07.327Z,95407.85
2018-06-28T12:32:10.658Z,95412.41
2018-06-28T12:37:13.991Z,95408.07
2018-06-28T12:42:17.331Z,95399.20
2018-06-28T12:47:38.267Z,95403.70
2018-06-28T12:52:41.599Z,95406.16
2018-06-28T12:57:44.925Z,95394.22
2018-06-28T13:02:48.269Z,95395.67
2018-06-28T13:07:51.606Z,95394.67
2018-06-28T13:12:55.717Z,95399.14
2018-06-28T13:17:59.065Z,95390.03
2018-06-28T13:23:02.398Z,95391.88
2018-06-28T13:28:05.732Z,95388.29
2018-06-28T13:33:09.080Z,95392.70
2018-06-28T13:38:13.196Z,95382.68
2018-06-28T13:43:16.531Z,95379.73
2018-06-28T13:48:20.629Z,95378.73
2018-06-28T13:53:23.962Z,95366.52
2018-06-28T13:58:28.065Z,95361.66
2018-06-28T14:03:31.495Z,95350.64
2018-06-28T14:08:34.766Z,95345.16
2018-06-28T14:13:38.102Z,95356.56
2018-06-28T14:18:41.465Z,95352.02
2018-06-28T14:23:45.571Z,95343.31
2018-06-28T14:28:48.909Z,95343.84
2018-06-28T14:33:52.247Z,95330.86
2018-06-28T14:38:55.587Z,95325.24
2018-06-28T14:43:59.018Z,95326.55
2018-06-28T14:49:02.376Z,95330.83
2018-06-28T14:54:05.740Z,95316.62
2018-06-28T14:59:09.091Z,95317.83
2018-06-28T15:04:12.445Z,95307.53
2018-06-28T15:09:15.773Z,95304.06
2018-06-28T15:14:19.151Z,95314.13
2018-06-28T15:19:25.772Z,95298.60
2018-06-28T15:24:29.117Z,95306.18
2018-06-28T15:29:33.211Z,95306.92
2018-06-28T15:34:36.538Z,95300.44
2018-06-28T15:39:39.874Z,95303.42
2018-06-28T15:44:43.982Z,95302.74
2018-06-28T15:49:47.329Z,95299.22
2018-06-28T15:54:50.674Z,95303.27
2018-06-28T16:00:09.295Z,95288.16
2018-06-28T16:05:13.412Z,95284.30
2018-06-28T16:15:52.096Z,95273.98
2018-06-28T16:20:56.191Z,95273.39
2018-06-28T16:25:59.527Z,95290.38
2018-06-28T16:31:02.969Z,95269.48
2018-06-28T16:36:07.234Z,95267.53
2018-06-28T16:41:12.190Z,95270.03
2018-06-28T16:46:15.565Z,95256.98
2018-06-28T16:51:19.791Z,95257.40
2018-06-28T16:56:23.135Z,95261.36
2018-06-28T17:01:26.470Z,95255.97
2018-06-28T17:06:29.830Z,95260.07
2018-06-28T17:11:33.183Z,95254.13
2018-06-28T17:16:36.547Z,95256.47
2018-06-28T17:21:39.901Z,95249.48
2018-06-28T17:26:43.267Z,95252.45
2018-06-28T17:31:46.618Z,95263.66
2018-06-28T17:36:49.964Z,95257.41
2018-06-28T17:41:53.296Z,95256.91
2018-06-28T17:46:56.631Z,95263.52
2018-06-28T17:52:00.727Z,95254.38
2018-06-28T17:57:04.080Z,95254.92
2018-06-28T18:02:08.179Z,95253.37
2018-06-28T18:07:11.510Z,95261.58
2018-06-28T18:12:14.849Z,95260.95
2018-06-28T18:17:18.189Z,95259.16
2018-06-28T18:22:21.523Z,95260.75
2018-06-28T18:27:24.861Z,95258.73
2018-06-28T18:32:28.192Z,95261.50
2018-06-28T18:37:32.292Z,95257.25
2018-06-28T18:42:35.630Z,95256.80
2018-06-28T18:47:39.727Z,95259.87
2018-06-28T18:52:43.065Z,95261.59
2018-06-28T18:57:47.162Z,95262.23
2018-06-28T19:02:50.507Z,95262.24
2018-06-28T19:07:54.608Z,95254.55
2018-06-28T19:12:57.943Z,95263.17
2018-06-28T19:18:01.281Z,95260.54
2018-06-28T19:28:33.343Z,95275.75
2018-06-28T19:33:36.684Z,95269.92
2018-06-28T19:38:40.020Z,95278.80
2018-06-28T19:43:44.139Z,95275.86
2018-06-28T19:48:48.234Z,95282.00
2018-06-28T19:53:51.574Z,95278.55
2018-06-28T19:58:54.923Z,95281.48
2018-06-28T20:04:12.858Z,95278.39
2018-06-28T20:09:16.977Z,95277.45
2018-06-28T20:19:55.343Z,95283.87
2018-06-28T20:24:58.680Z,95284.41
2018-06-28T20:35:31.399Z,95289.25
2018-06-28T20:40:39.810Z,95295.73
2018-06-28T20:45:43.150Z,95304.05
2018-06-28T20:50:47.265Z,95298.58
2018-06-28T20:55:50.716Z,95306.86
2018-06-28T21:00:54.055Z,95305.80
2018-06-28T21:05:57.384Z,95298.39
2018-06-28T21:11:00.727Z,95293.14
2018-06-28T21:16:04.062Z,95298.80
2018-06-28T21:21:08.219Z,95303.48
2018-06-28T21:26:11.507Z,95307.63
2018-06-28T21:31:15.609Z,95311.71
2018-06-28T21:36:18.960Z,95316.38
2018-06-28T21:41:22.297Z,95311.13
2018-06-28T21:46:25.649Z,95313.58
2018-06-28T21:51:28.994Z,95323.36
2018-06-28T21:56:32.355Z,95315.02
2018-06-28T22:01:35.690Z,95315.95
2018-06-28T22:06:39.789Z,95318.44
2018-06-28T22:11:43.126Z,95309.45
2018-06-28T22:16:46.467Z,95310.27
2018-06-28T22:21:50.567Z,95305.37
2018-06-28T22:26:53.900Z,95302.58
